createdAt,value
2023-04-15T00:01:49.118Z,9.38
2023-04-15T00:04:16.518Z,9.18
2023-04-15T00:06:43.488Z,9.45
2023-04-15T00:09:10.234Z,9.13
2023-04-15T00:11:36.943Z,9.93
2023-04-15T00:14:04.480Z,9.00
2023-04-15T00:16:31.451Z,9.32
2023-04-15T00:18:58.998Z,9.27
2023-04-15T00:21:27.521Z,8.80
2023-04-15T00:23:54.612Z,9.00
2023-04-15T00:26:22.206Z,9.18
2023-04-15T00:28:50.313Z,7.53
2023-04-15T00:31:17.446Z,8.55
2023-04-15T00:33:44.659Z,8.20
2023-04-15T00:36:11.376Z,8.00
2023-04-15T00:38:38.472Z,7.35
2023-04-15T00:41:05.542Z,7.80
2023-04-15T00:43:32.295Z,7.57
2023-04-15T00:45:59.535Z,7.38
2023-04-15T00:48:27.902Z,7.22
2023-04-15T00:50:55.331Z,7.07
2023-04-15T00:53:22.364Z,6.93
2023-04-15T00:55:49.904Z,7.28
2023-04-15T00:58:16.723Z,6.75
2023-04-15T01:00:44.754Z,7.10
2023-04-15T01:03:11.737Z,6.88
2023-04-15T01:05:39.230Z,7.35
2023-04-15T01:08:06.600Z,6.97
2023-04-15T01:10:33.776Z,7.25
2023-04-15T01:13:00.881Z,8.30
2023-04-15T01:15:27.732Z,7.78
2023-04-15T01:17:58.797Z,7.80
2023-04-15T01:20:26.112Z,8.52
2023-04-15T01:22:55.198Z,8.73
2023-04-15T01:25:34.055Z,8.10
2023-04-15T01:28:01.274Z,8.82
2023-04-15T01:30:28.085Z,8.07
2023-04-15T01:32:55.087Z,8.70
2023-04-15T01:35:23.955Z,8.65
2023-04-15T01:37:51.223Z,8.57
2023-04-15T01:40:18.042Z,8.27
2023-04-15T01:42:44.869Z,8.35
2023-04-15T01:45:14.055Z,7.95
2023-04-15T01:47:41.259Z,7.93
2023-04-15T01:50:08.672Z,8.55
2023-04-15T01:52:35.562Z,7.40
2023-04-15T01:55:02.756Z,7.45
2023-04-15T01:57:30.099Z,7.57
2023-04-15T01:59:57.136Z,8.05
2023-04-15T02:02:24.867Z,7.57
2023-04-15T02:04:51.937Z,6.90
2023-04-15T02:07:19.625Z,8.05
2023-04-15T02:09:46.592Z,7.68
2023-04-15T02:12:14.464Z,7.88
2023-04-15T02:14:41.435Z,8.05
2023-04-15T02:17:10.609Z,7.18
2023-04-15T02:19:37.757Z,7.07
2023-04-15T02:22:04.463Z,7.57
2023-04-15T02:24:31.574Z,8.10
2023-04-15T02:26:58.313Z,8.50
2023-04-15T02:29:25.196Z,8.13
2023-04-15T02:31:52.252Z,7.25
2023-04-15T02:34:19.131Z,7.53
2023-04-15T02:36:48.554Z,7.43
2023-04-15T02:39:16.856Z,7.78
2023-04-15T02:41:47.572Z,7.60
2023-04-15T02:44:14.407Z,8.07
2023-04-15T02:46:41.302Z,7.90
2023-04-15T02:49:08.607Z,8.15
2023-04-15T02:51:35.488Z,8.73
2023-04-15T02:54:02.856Z,8.88
2023-04-15T02:56:30.873Z,8.93
2023-04-15T02:58:58.389Z,8.40
2023-04-15T03:01:26.156Z,8.85
2023-04-15T03:03:53.235Z,7.75
2023-04-15T03:06:20.101Z,8.90
2023-04-15T03:08:47.147Z,8.32
2023-04-15T03:11:15.267Z,8.25
2023-04-15T03:13:43.301Z,8.40
2023-04-15T03:16:10.564Z,8.80
2023-04-15T03:18:37.735Z,8.73
2023-04-15T03:21:04.887Z,8.38
2023-04-15T03:23:32.172Z,8.23
2023-04-15T03:26:02.724Z,9.75
2023-04-15T03:28:30.060Z,8.65
2023-04-15T03:30:57.401Z,8.80
2023-04-15T03:33:24.404Z,8.60
2023-04-15T03:35:52.051Z,8.85
2023-04-15T03:38:19.021Z,8.77
2023-04-15T03:40:47.218Z,8.68
2023-04-15T03:43:14.474Z,9.07
2023-04-15T03:45:41.239Z,8.50
2023-04-15T03:48:17.100Z,9.60
2023-04-15T03:50:44.790Z,8.77
2023-04-15T03:53:11.783Z,8.55
2023-04-15T03:55:38.643Z,8.68
2023-04-15T03:58:06.030Z,8.65
2023-04-15T04:00:32.889Z,9.20
2023-04-15T04:03:00.098Z,8.93
2023-04-15T04:05:27.488Z,9.23
2023-04-15T04:07:54.225Z,9.38
2023-04-15T04:10:21.097Z,8.07
2023-04-15T04:12:47.824Z,8.32
2023-04-15T04:15:14.578Z,8.57
2023-04-15T04:17:41.343Z,8.07
2023-04-15T04:20:08.664Z,8.10
2023-04-15T04:22:41.859Z,7.65
2023-04-15T04:25:12.466Z,8.00
2023-04-15T04:27:39.265Z,8.50
2023-04-15T04:30:06.875Z,9.35
2023-04-15T04:32:33.708Z,8.90
2023-04-15T04:35:00.510Z,8.30
2023-04-15T04:37:27.579Z,8.48
2023-04-15T04:39:54.745Z,8.88
2023-04-15T04:42:21.795Z,8.48
2023-04-15T04:44:48.604Z,8.88
2023-04-15T04:47:15.469Z,9.05
2023-04-15T04:49:42.257Z,8.57
2023-04-15T04:52:09.311Z,9.02
2023-04-15T04:54:36.385Z,9.07
2023-04-15T04:57:03.181Z,8.73
2023-04-15T04:59:30.207Z,8.98
2023-04-15T05:01:57.383Z,8.60
2023-04-15T05:04:24.198Z,8.68
2023-04-15T05:06:50.921Z,8.38
2023-04-15T05:09:18.044Z,8.05
2023-04-15T05:11:45.662Z,8.68
2023-04-15T05:14:12.414Z,7.88
2023-04-15T05:16:39.190Z,8.27
2023-04-15T05:19:06.350Z,8.32
2023-04-15T05:21:33.164Z,8.07
2023-04-15T05:24:00.600Z,5.28
2023-04-15T05:26:27.548Z,5.15
2023-04-15T05:28:55.057Z,4.20
2023-04-15T05:31:22.086Z,5.57
2023-04-15T05:33:48.960Z,5.10
2023-04-15T05:36:16.027Z,4.53
2023-04-15T05:38:42.793Z,4.90
2023-04-15T05:41:09.611Z,4.03
2023-04-15T05:43:36.570Z,4.75
2023-04-15T05:46:03.687Z,5.18
2023-04-15T05:48:30.571Z,4.88
2023-04-15T05:50:57.844Z,4.78
2023-04-15T05:53:24.618Z,4.38
2023-04-15T05:55:51.654Z,3.75
2023-04-15T05:58:18.438Z,3.78
2023-04-15T06:00:46.133Z,4.00
2023-04-15T06:03:13.397Z,4.18
2023-04-15T06:05:40.714Z,4.00
2023-04-15T06:08:08.297Z,4.57
2023-04-15T06:10:36.727Z,4.60
2023-04-15T06:13:04.356Z,5.00
2023-04-15T06:15:31.679Z,5.00
2023-04-15T06:17:59.732Z,5.50
2023-04-15T06:20:26.612Z,5.38
2023-04-15T06:22:53.767Z,5.25
2023-04-15T06:25:20.936Z,5.50
2023-04-15T06:27:48.362Z,5.75
2023-04-15T06:30:15.161Z,6.18
2023-04-15T06:32:42.033Z,6.43
2023-04-15T06:35:09.427Z,6.15
2023-04-15T06:37:36.436Z,6.88
2023-04-15T06:40:05.075Z,7.00
2023-04-15T06:42:32.163Z,6.60
2023-04-15T06:44:58.941Z,6.70
2023-04-15T06:47:26.141Z,6.80
2023-04-15T06:49:53.506Z,6.50
2023-04-15T06:52:20.289Z,5.75
2023-04-15T06:54:47.073Z,5.60
2023-04-15T06:57:14.255Z,5.93
2023-04-15T06:59:41.119Z,5.15
2023-04-15T07:02:12.387Z,6.50
2023-04-15T07:04:40.259Z,5.00
2023-04-15T07:07:08.146Z,5.28
2023-04-15T07:09:35.092Z,4.80
2023-04-15T07:12:01.991Z,4.18
2023-04-15T07:14:29.533Z,4.65
2023-04-15T07:16:57.699Z,4.25
2023-04-15T07:19:24.566Z,3.92
2023-04-15T07:21:51.405Z,3.45
2023-04-15T07:24:20.040Z,3.22
2023-04-15T07:26:47.138Z,2.60
2023-04-15T07:29:14.214Z,1.98
2023-04-15T07:31:42.241Z,2.15
2023-04-15T07:34:09.089Z,2.13
2023-04-15T07:36:36.758Z,1.60
2023-04-15T07:39:04.389Z,1.60
2023-04-15T07:41:31.777Z,1.70
2023-04-15T07:43:59.008Z,1.80
2023-04-15T07:46:27.298Z,1.67
2023-04-15T07:48:54.485Z,1.70
2023-04-15T07:51:21.714Z,1.90
2023-04-15T07:53:50.340Z,1.60
2023-04-15T07:56:17.595Z,1.45
2023-04-15T07:58:44.384Z,1.45
2023-04-15T08:01:11.622Z,1.48
2023-04-15T08:03:39.526Z,1.80
2023-04-15T08:06:06.581Z,1.80
2023-04-15T08:08:33.373Z,1.98
2023-04-15T08:11:00.609Z,2.10
2023-04-15T08:13:27.911Z,1.88
2023-04-15T08:16:18.851Z,1.88
2023-04-15T08:18:47.266Z,2.20
2023-04-15T08:21:14.324Z,2.10
2023-04-15T08:23:41.282Z,1.85
2023-04-15T08:26:08.848Z,2.20
2023-04-15T08:28:37.572Z,2.67
2023-04-15T08:31:04.394Z,3.08
2023-04-15T08:33:31.207Z,2.30
2023-04-15T08:35:58.429Z,2.20
2023-04-15T08:38:25.484Z,2.22
2023-04-15T08:40:52.518Z,2.05
2023-04-15T08:43:26.589Z,1.92
2023-04-15T08:45:53.854Z,2.03
2023-04-15T08:48:24.475Z,1.90
2023-04-15T08:50:52.152Z,1.83
2023-04-15T08:53:19.172Z,2.15
2023-04-15T08:55:49.342Z,2.35
2023-04-15T08:58:16.764Z,1.85
2023-04-15T09:00:44.180Z,2.63
2023-04-15T09:03:12.186Z,2.60
2023-04-15T09:05:39.066Z,2.40
2023-04-15T09:08:06.000Z,3.20
2023-04-15T09:10:33.652Z,3.50
2023-04-15T09:13:01.983Z,3.35
2023-04-15T09:15:30.166Z,3.83
2023-04-15T09:17:57.244Z,3.80
2023-04-15T09:20:24.662Z,3.60
2023-04-15T09:22:52.282Z,3.97
2023-04-15T09:25:22.630Z,3.85
2023-04-15T09:27:58.205Z,4.20
2023-04-15T09:30:25.402Z,4.07
2023-04-15T09:32:57.697Z,3.67
2023-04-15T09:35:27.410Z,3.53
2023-04-15T09:38:08.788Z,3.15
2023-04-15T09:40:42.179Z,3.45
2023-04-15T09:43:13.056Z,3.10
2023-04-15T09:45:51.340Z,3.22
2023-04-15T09:48:28.959Z,2.95
2023-04-15T09:50:59.054Z,2.88
2023-04-15T09:53:26.360Z,3.00
2023-04-15T09:55:55.066Z,2.47
2023-04-15T09:58:24.810Z,3.15
2023-04-15T10:00:53.286Z,2.97
2023-04-15T10:03:24.395Z,3.20
2023-04-15T10:05:53.834Z,3.17
2023-04-15T10:08:23.823Z,2.63
2023-04-15T10:10:52.136Z,3.22
2023-04-15T10:13:24.894Z,3.00
2023-04-15T10:16:00.803Z,2.88
2023-04-15T10:18:28.841Z,3.17
2023-04-15T10:20:56.010Z,3.20
2023-04-15T10:23:24.377Z,3.17
2023-04-15T10:25:54.430Z,3.22
2023-04-15T10:28:24.840Z,3.00
2023-04-15T10:30:53.492Z,3.35
2023-04-15T10:33:23.833Z,3.25
2023-04-15T10:35:52.442Z,3.03
2023-04-15T10:38:32.129Z,2.65
2023-04-15T10:41:28.079Z,3.05
2023-04-15T10:43:57.809Z,2.67
2023-04-15T10:46:45.208Z,2.70
2023-04-15T10:49:17.101Z,3.15
2023-04-15T10:51:47.023Z,2.90
2023-04-15T10:54:16.450Z,2.65
2023-04-15T10:56:50.791Z,2.50
2023-04-15T10:59:17.707Z,2.80
2023-04-15T11:01:57.598Z,2.67
2023-04-15T11:04:59.974Z,2.63
2023-04-15T11:07:35.747Z,2.70
2023-04-15T11:10:03.566Z,2.42
2023-04-15T11:12:36.903Z,2.47
2023-04-15T11:15:27.063Z,2.50
2023-04-15T11:17:56.789Z,2.30
2023-04-15T11:20:24.014Z,2.00
2023-04-15T11:23:14.442Z,2.45
2023-04-15T11:25:40.795Z,2.25
2023-04-15T11:28:07.664Z,2.10
2023-04-15T11:30:36.918Z,2.40
2023-04-15T11:33:14.790Z,2.22
2023-04-15T11:35:42.480Z,1.80
2023-04-15T11:38:12.047Z,2.50
2023-04-15T11:40:39.085Z,2.40
2023-04-15T11:43:20.195Z,2.45
2023-04-15T11:45:58.135Z,2.20
2023-04-15T11:48:33.393Z,2.20
2023-04-15T11:51:05.362Z,2.38
2023-04-15T11:53:48.211Z,2.30
2023-04-15T11:56:23.026Z,2.03
2023-04-15T11:58:58.309Z,2.08
2023-04-15T12:01:35.161Z,1.80
2023-04-15T12:04:03.843Z,2.20
2023-04-15T12:06:38.715Z,2.00
2023-04-15T12:09:16.644Z,2.15
2023-04-15T12:11:48.535Z,2.33
2023-04-15T12:14:29.497Z,2.13
2023-04-15T12:17:01.400Z,2.30
2023-04-15T12:19:29.426Z,2.22
2023-04-15T12:22:01.651Z,2.20
2023-04-15T12:24:32.266Z,2.15
2023-04-15T12:27:06.815Z,2.00
2023-04-15T12:29:35.596Z,1.95
2023-04-15T12:32:10.336Z,1.98
2023-04-15T12:34:39.438Z,1.98
2023-04-15T12:37:09.666Z,1.92
2023-04-15T12:39:38.613Z,2.22
2023-04-15T12:42:06.176Z,1.98
2023-04-15T12:44:33.641Z,2.40
2023-04-15T12:47:01.314Z,1.92
2023-04-15T12:49:29.329Z,2.28
2023-04-15T12:51:58.013Z,2.20
2023-04-15T12:54:25.012Z,2.20
2023-04-15T12:56:51.919Z,2.28
2023-04-15T12:59:19.378Z,2.05
2023-04-15T13:01:47.808Z,2.17
2023-04-15T13:04:16.370Z,2.25
2023-04-15T13:06:43.515Z,2.08
2023-04-15T13:09:10.720Z,2.35
2023-04-15T13:11:37.724Z,2.45
2023-04-15T13:14:07.089Z,2.30
2023-04-15T13:16:34.611Z,2.10
2023-04-15T13:19:03.443Z,2.75
2023-04-15T13:21:32.195Z,2.50
2023-04-15T13:23:59.782Z,2.55
2023-04-15T13:26:26.560Z,2.50
2023-04-15T13:28:53.341Z,2.97
2023-04-15T13:31:21.827Z,4.03
2023-04-15T13:33:48.561Z,2.55
2023-04-15T13:36:15.838Z,2.60
2023-04-15T13:38:42.781Z,2.50
2023-04-15T13:41:09.931Z,2.17
2023-04-15T13:43:36.726Z,2.90
2023-04-15T13:46:03.954Z,3.00
2023-04-15T13:48:30.786Z,2.97
2023-04-15T13:50:57.521Z,2.97
2023-04-15T13:53:37.916Z,2.70
2023-04-15T13:56:07.766Z,2.83
2023-04-15T13:58:34.550Z,2.97
2023-04-15T14:01:03.171Z,3.00
2023-04-15T14:03:31.772Z,2.75
2023-04-15T14:05:59.362Z,3.45
2023-04-15T14:08:26.426Z,2.92
2023-04-15T14:10:53.263Z,2.40
2023-04-15T14:13:20.030Z,3.08
2023-04-15T14:15:47.156Z,3.85
2023-04-15T14:18:14.359Z,3.50
2023-04-15T14:20:41.128Z,3.17
2023-04-15T14:23:08.070Z,3.30
2023-04-15T14:25:34.948Z,2.97
2023-04-15T14:28:03.274Z,2.78
2023-04-15T14:30:30.838Z,3.40
2023-04-15T14:32:57.772Z,3.00
2023-04-15T14:35:26.540Z,4.00
2023-04-15T14:37:54.167Z,3.55
2023-04-15T14:40:21.096Z,3.60
2023-04-15T14:42:48.065Z,3.78
2023-04-15T14:45:15.098Z,3.55
2023-04-15T14:47:41.964Z,3.55
2023-04-15T14:50:09.230Z,3.50
2023-04-15T14:52:39.015Z,3.55
2023-04-15T14:55:10.860Z,3.75
2023-04-15T14:57:38.706Z,4.00
2023-04-15T15:00:07.310Z,3.10
2023-04-15T15:02:39.242Z,3.55
2023-04-15T15:05:07.895Z,3.42
2023-04-15T15:07:36.811Z,3.80
2023-04-15T15:10:04.008Z,3.65
2023-04-15T15:12:31.004Z,3.22
2023-04-15T15:14:58.190Z,3.20
2023-04-15T15:17:25.017Z,3.50
2023-04-15T15:19:52.008Z,3.65
2023-04-15T15:22:21.178Z,3.80
2023-04-15T15:24:48.365Z,3.75
2023-04-15T15:27:15.994Z,3.67
2023-04-15T15:29:42.770Z,4.03
2023-04-15T15:32:09.716Z,4.45
2023-04-15T15:34:36.483Z,4.25
2023-04-15T15:37:03.271Z,4.03
2023-04-15T15:39:31.522Z,4.55
2023-04-15T15:41:58.328Z,4.25
2023-04-15T15:44:25.615Z,4.00
2023-04-15T15:46:53.752Z,3.75
2023-04-15T15:49:20.536Z,3.25
2023-04-15T15:51:47.432Z,3.33
2023-04-15T15:54:14.280Z,3.53
2023-04-15T15:56:42.043Z,3.55
2023-04-15T15:59:08.866Z,3.63
2023-04-15T16:01:35.679Z,3.65
2023-04-15T16:04:02.900Z,3.85
2023-04-15T16:06:29.850Z,3.40
2023-04-15T16:08:56.632Z,3.38
2023-04-15T16:11:23.726Z,3.53
2023-04-15T16:13:50.987Z,3.38
2023-04-15T16:16:18.207Z,3.03
2023-04-15T16:18:45.152Z,3.25
2023-04-15T16:21:11.996Z,3.33
2023-04-15T16:23:38.925Z,3.20
2023-04-15T16:26:08.827Z,3.25
2023-04-15T16:28:35.703Z,3.95
2023-04-15T16:31:02.605Z,3.42
2023-04-15T16:33:29.471Z,3.20
2023-04-15T16:35:56.423Z,3.20
2023-04-15T16:38:23.549Z,3.53
2023-04-15T16:40:51.450Z,3.10
2023-04-15T16:43:20.886Z,3.58
2023-04-15T16:45:51.076Z,3.70
2023-04-15T16:48:19.334Z,3.72
2023-04-15T16:50:46.282Z,3.55
2023-04-15T16:53:14.675Z,3.40
2023-04-15T16:55:41.424Z,4.30
2023-04-15T16:58:08.554Z,4.30
2023-04-15T17:00:38.377Z,3.60
2023-04-15T17:03:05.879Z,3.33
2023-04-15T17:05:33.138Z,3.97
2023-04-15T17:07:59.998Z,4.47
2023-04-15T17:10:27.267Z,3.55
2023-04-15T17:12:56.724Z,4.32
2023-04-15T17:15:23.614Z,4.20
2023-04-15T17:17:50.471Z,4.30
2023-04-15T17:20:19.927Z,4.40
2023-04-15T17:22:47.755Z,4.45
2023-04-15T17:25:14.791Z,4.10
2023-04-15T17:27:41.841Z,4.55
2023-04-15T17:30:09.153Z,4.53
2023-04-15T17:32:36.611Z,4.13
2023-04-15T17:35:07.349Z,4.13
2023-04-15T17:37:34.660Z,3.70
2023-04-15T17:40:01.776Z,4.47
2023-04-15T17:42:29.149Z,4.53
2023-04-15T17:44:56.000Z,4.88
2023-04-15T17:47:23.030Z,4.65
2023-04-15T17:49:49.751Z,4.63
2023-04-15T17:52:16.749Z,4.95
2023-04-15T17:54:43.668Z,4.75
2023-04-15T17:57:10.764Z,4.70
2023-04-15T17:59:37.851Z,4.50
2023-04-15T18:02:04.728Z,5.20
2023-04-15T18:04:31.727Z,4.95
2023-04-15T18:06:58.622Z,5.18
2023-04-15T18:09:25.435Z,4.70
2023-04-15T18:11:52.144Z,5.30
2023-04-15T18:14:32.975Z,5.00
2023-04-15T18:17:01.250Z,4.38
2023-04-15T18:19:28.097Z,4.63
2023-04-15T18:21:55.276Z,4.30
2023-04-15T18:24:22.628Z,4.35
2023-04-15T18:26:49.554Z,4.90
2023-04-15T18:29:16.828Z,4.85
2023-04-15T18:31:43.957Z,4.47
2023-04-15T18:34:11.228Z,5.10
2023-04-15T18:36:38.020Z,4.63
2023-04-15T18:39:05.389Z,3.97
2023-04-15T18:41:32.410Z,4.30
2023-04-15T18:43:59.187Z,4.40
2023-04-15T18:46:27.540Z,4.25
2023-04-15T18:48:54.286Z,4.43
2023-04-15T18:51:21.736Z,4.32
2023-04-15T18:53:48.696Z,4.10
2023-04-15T18:56:15.498Z,4.50
2023-04-15T18:59:19.402Z,4.88
2023-04-15T19:01:33.199Z,5.10
2023-04-15T19:04:00.213Z,5.15
2023-04-15T19:06:27.213Z,5.15
2023-04-15T19:08:54.686Z,5.05
2023-04-15T19:11:22.071Z,5.32
2023-04-15T19:13:49.430Z,5.53
2023-04-15T19:16:16.444Z,5.25
2023-04-15T19:18:43.872Z,5.82
2023-04-15T19:21:13.007Z,4.90
2023-04-15T19:23:40.853Z,5.40
2023-04-15T19:26:08.334Z,5.38
2023-04-15T19:28:35.160Z,5.63
2023-04-15T19:31:02.257Z,5.57
2023-04-15T19:33:31.434Z,5.60
2023-04-15T19:36:05.282Z,5.18
2023-04-15T19:38:37.716Z,5.55
2023-04-15T19:41:04.784Z,5.60
2023-04-15T19:43:32.757Z,5.63
2023-04-15T19:45:59.770Z,5.68
2023-04-15T19:48:26.878Z,6.22
2023-04-15T19:50:53.689Z,5.85
2023-04-15T19:53:20.436Z,5.57
2023-04-15T19:55:48.340Z,6.45
2023-04-15T19:58:15.476Z,5.80
2023-04-15T20:00:42.341Z,6.47
2023-04-15T20:03:09.321Z,6.22
2023-04-15T20:05:36.183Z,6.60
2023-04-15T20:08:03.150Z,6.43
2023-04-15T20:10:31.665Z,5.85
2023-04-15T20:12:58.509Z,7.40
2023-04-15T20:15:26.066Z,5.28
2023-04-15T20:17:52.948Z,5.57
2023-04-15T20:20:20.809Z,5.95
2023-04-15T20:22:48.323Z,5.40
2023-04-15T20:25:15.142Z,5.30
2023-04-15T20:27:41.954Z,6.55
2023-04-15T20:30:09.164Z,6.72
2023-04-15T20:32:36.654Z,6.13
2023-04-15T20:35:06.836Z,6.32
2023-04-15T20:37:34.019Z,6.35
2023-04-15T20:40:01.232Z,6.68
2023-04-15T20:42:31.904Z,7.22
2023-04-15T20:44:58.968Z,6.70
2023-04-15T20:47:28.249Z,6.93
2023-04-15T20:49:55.380Z,6.57
2023-04-15T20:52:23.482Z,6.38
2023-04-15T20:54:51.224Z,6.50
2023-04-15T20:57:18.510Z,6.05
2023-04-15T20:59:46.590Z,7.03
2023-04-15T21:02:13.440Z,6.20
2023-04-15T21:04:40.592Z,6.38
2023-04-15T21:07:07.310Z,7.35
2023-04-15T21:09:34.111Z,6.93
2023-04-15T21:12:02.149Z,6.78
2023-04-15T21:14:29.529Z,6.07
2023-04-15T21:17:07.322Z,6.60
2023-04-15T21:19:36.602Z,6.95
2023-04-15T21:22:03.844Z,5.95
2023-04-15T21:24:30.619Z,6.55
2023-04-15T21:26:57.538Z,6.55
2023-04-15T21:29:24.375Z,6.60
2023-04-15T21:31:51.429Z,6.38
2023-04-15T21:34:18.245Z,6.47
2023-04-15T21:36:44.955Z,6.25
2023-04-15T21:39:11.675Z,6.72
2023-04-15T21:41:38.419Z,6.90
2023-04-15T21:44:05.425Z,6.43
2023-04-15T21:46:33.336Z,6.78
2023-04-15T21:49:03.366Z,6.47
2023-04-15T21:51:31.401Z,7.13
2023-04-15T21:53:58.574Z,6.45
2023-04-15T21:56:26.030Z,6.18
2023-04-15T21:58:56.918Z,6.20
2023-04-15T22:01:24.468Z,6.15
2023-04-15T22:03:51.696Z,6.15
2023-04-15T22:06:18.581Z,6.18
2023-04-15T22:08:56.074Z,6.50
2023-04-15T22:11:28.215Z,6.55
2023-04-15T22:13:59.226Z,6.80
2023-04-15T22:16:26.755Z,5.32
2023-04-15T22:18:54.511Z,6.00
2023-04-15T22:21:23.185Z,5.68
2023-04-15T22:23:51.020Z,5.50
2023-04-15T22:26:18.402Z,6.03
2023-04-15T22:28:45.538Z,6.25
2023-04-15T22:31:12.346Z,6.13
2023-04-15T22:33:39.204Z,5.63
2023-04-15T22:36:06.351Z,5.95
2023-04-15T22:38:33.529Z,6.13
2023-04-15T22:41:00.736Z,5.68
2023-04-15T22:43:27.813Z,6.30
2023-04-15T22:45:55.015Z,6.18
2023-04-15T22:48:22.543Z,6.90
2023-04-15T22:50:49.739Z,7.28
2023-04-15T22:53:17.352Z,6.90
2023-04-15T22:55:47.945Z,7.40
2023-04-15T22:58:15.794Z,8.13
2023-04-15T23:00:42.663Z,8.68
2023-04-15T23:03:09.613Z,8.30
2023-04-15T23:05:36.952Z,8.23
2023-04-15T23:08:03.796Z,8.73
2023-04-15T23:10:30.558Z,9.02
2023-04-15T23:12:57.251Z,9.35
2023-04-15T23:15:24.214Z,9.40
2023-04-15T23:17:51.147Z,9.38
2023-04-15T23:20:18.982Z,10.23
2023-04-15T23:22:45.744Z,8.95
2023-04-15T23:25:12.486Z,8.98
2023-04-15T23:27:39.284Z,9.27
2023-04-15T23:30:06.908Z,9.50
2023-04-15T23:32:33.768Z,8.68
2023-04-15T23:35:00.690Z,8.40
2023-04-15T23:37:30.280Z,9.00
2023-04-15T23:39:57.155Z,8.40
2023-04-15T23:42:24.659Z,9.10
2023-04-15T23:44:51.947Z,9.07
2023-04-15T23:47:19.228Z,8.88
2023-04-15T23:49:46.262Z,8.55
2023-04-15T23:52:13.568Z,7.85
2023-04-15T23:54:40.487Z,7.40
2023-04-15T23:57:07.269Z,7.85
2023-04-15T23:59:34.020Z,6.68
